Bw Falcon — 9V2919 — position and weather

sailwx.info

Track history (hours):
 
Tides and Currents Weather Stations Pressure Air Temp Water Temp Dewpoint Dewpoint Depression Visibility Wind Speed Wind Dir Waves Ship Positions

Bw Falcon

Last reported at 2017-Oct-06 11:45 UTC. Time now 2017-Oct-17 01:06 UTC.
Position N 29°21' W 094°42'.
Warning: this ship's position is 10 days out of date.

Length 183 m; draft 10.3 m.

Type: Tanker. MMSI: 566000000.

Date/timePositionNaut miles runAvg speedWind from/ knotsBaromVisibWave heightAir tempDewpointWater temp
2017-Oct-06 11:45N 29°21' W 094°42'1210.0
2017-Oct-06 10:30N 29°30' W 094°52'611.3
2017-Oct-06 10:00N 29°34' W 094°55'510.9
2017-Oct-06 09:30N 29°39' W 094°58'4 8.4
2017-Oct-06 09:00N 29°43' W 095°01'3 6.7
2017-Oct-06 08:30N 29°45' W 095°04'3 5.2
2017-Oct-06 08:00N 29°44' W 095°07'3 5.9
2017-Oct-06 07:30N 29°45' W 095°10'3 5.0
2017-Oct-06 07:00N 29°44' W 095°13'0 0.0
2017-Oct-04 04:33N 29°44' W 095°13'0 0.0
2017-Oct-04 04:30N 29°44' W 095°13'1 2.1
2017-Oct-04 04:00N 29°43' W 095°14'2 3.1
2017-Oct-04 03:30N 29°44' W 095°13'2 4.7
2017-Oct-04 03:00N 29°45' W 095°10'3 5.7
2017-Oct-04 02:30N 29°44' W 095°07'3 5.7
2017-Oct-04 02:00N 29°45' W 095°04'3 6.8
2017-Oct-04 01:30N 29°43' W 095°01'5 9.1
2017-Oct-04 01:00N 29°39' W 094°58'611.7
2017-Oct-04 00:30N 29°34' W 094°55'712.0
2017-Oct-03 23:57N 29°28' W 094°51'  
Track history (hours):
 
Tides and Currents Weather Stations Pressure Air Temp Water Temp Dewpoint Dewpoint Depression Visibility Wind Speed Wind Dir Waves Ship Positions

Bw Falcon

Last reported at 2017-Oct-06 11:45 UTC. Time now 2017-Oct-17 01:06 UTC.
Position N 29°21' W 094°42'.
Warning: this ship's position is 10 days out of date.

Length 183 m; draft 10.3 m.

Type: Tanker. MMSI: 566000000.

Date/timePositionNaut miles runAvg speedWind from/ knotsBaromVisibWave heightAir tempDewpointWater temp
2017-Oct-06 11:45N 29°21' W 094°42'1210.0
2017-Oct-06 10:30N 29°30' W 094°52'611.3
2017-Oct-06 10:00N 29°34' W 094°55'510.9
2017-Oct-06 09:30N 29°39' W 094°58'4 8.4
2017-Oct-06 09:00N 29°43' W 095°01'3 6.7
2017-Oct-06 08:30N 29°45' W 095°04'3 5.2
2017-Oct-06 08:00N 29°44' W 095°07'3 5.9
2017-Oct-06 07:30N 29°45' W 095°10'3 5.0
2017-Oct-06 07:00N 29°44' W 095°13'0 0.0
2017-Oct-04 04:33N 29°44' W 095°13'0 0.0
2017-Oct-04 04:30N 29°44' W 095°13'1 2.1
2017-Oct-04 04:00N 29°43' W 095°14'2 3.1
2017-Oct-04 03:30N 29°44' W 095°13'2 4.7
2017-Oct-04 03:00N 29°45' W 095°10'3 5.7
2017-Oct-04 02:30N 29°44' W 095°07'3 5.7
2017-Oct-04 02:00N 29°45' W 095°04'3 6.8
2017-Oct-04 01:30N 29°43' W 095°01'5 9.1
2017-Oct-04 01:00N 29°39' W 094°58'611.7
2017-Oct-04 00:30N 29°34' W 094°55'712.0
2017-Oct-03 23:57N 29°28' W 094°51'  

Dump ship's entire track history